Time;durP1;ratioP1;P1;durP2;ratioP2;P2;SDS_P1;SDS_P2;PMS_P1;PMS_P2;Temp;Humidity;BMP_temperature;BMP_pressure;BME280_temperature;BME280_humidity;BME280_pressure;Samples;Min_cycle;Max_cycle;Signal;HPM_P1;HPM_P2
2022/09/25 00:01:35;;;;;;;16.98;12.07;;;12.90;99.90;;;;;;4902355;29;20179;-89
2022/09/25 00:04:04;;;;;;;14.15;10.98;;;12.90;99.90;;;;;;4901938;29;20666;-88
2022/09/25 00:06:32;;;;;;;16.42;11.65;;;12.90;99.90;;;;;;4902258;29;20237;-89
2022/09/25 00:09:03;;;;;;;16.65;11.05;;;12.90;99.90;;;;;;4902008;29;20202;-89
2022/09/25 00:11:37;;;;;;;18.17;12.60;;;12.90;99.90;;;;;;4902204;29;20257;-89
2022/09/25 00:14:03;;;;;;;16.35;10.98;;;12.90;99.90;;;;;;4901999;29;20163;-89
2022/09/25 00:16:31;;;;;;;18.63;12.82;;;12.90;99.90;;;;;;4901988;29;20214;-88
2022/09/25 00:21:44;;;;;;;14.00;11.25;;;12.90;99.90;;;;;;4918726;29;20173;-89
2022/09/25 00:24:12;;;;;;;19.55;11.40;;;12.90;99.90;;;;;;4900924;29;20269;-88
2022/09/25 00:26:40;;;;;;;16.42;12.13;;;12.90;99.90;;;;;;4900967;29;20253;-88
2022/09/25 00:29:12;;;;;;;19.10;12.05;;;12.90;99.90;;;;;;4901523;29;20194;-89
2022/09/25 00:31:39;;;;;;;18.33;12.02;;;12.90;99.90;;;;;;4901632;29;20657;-88
2022/09/25 00:34:06;;;;;;;16.25;11.23;;;12.90;99.90;;;;;;4901563;29;20178;-90
2022/09/25 00:36:37;;;;;;;16.08;11.52;;;12.90;99.90;;;;;;4901208;29;20645;-89
2022/09/25 00:39:04;;;;;;;15.68;11.40;;;12.90;99.90;;;;;;4901515;29;20258;-89
2022/09/25 00:41:40;;;;;;;15.70;11.35;;;12.90;99.90;;;;;;4901391;29;20177;-89
2022/09/25 00:45:00;;;;;;;15.93;11.55;;;12.90;99.90;;;;;;4901268;29;20249;-88
2022/09/25 00:47:38;;;;;;;15.88;11.63;;;12.90;99.90;;;;;;5320213;23;20297;-87
2022/09/25 00:50:25;;;;;;;16.42;11.88;;;12.90;99.90;;;;;;4901441;29;20282;-86
2022/09/25 00:52:54;;;;;;;16.30;11.80;;;12.90;99.90;;;;;;4901301;29;20178;-87
2022/09/25 00:55:22;;;;;;;19.02;11.63;;;12.90;99.90;;;;;;4901609;29;20183;-87
2022/09/25 01:11:23;;;;;;;15.82;11.90;;;12.90;99.90;;;;;;4918912;29;20230;-87
2022/09/25 01:13:49;;;;;;;16.90;12.57;;;12.90;99.90;;;;;;4918504;29;20258;-87
2022/09/25 01:16:42;;;;;;;18.65;12.73;;;12.90;99.90;;;;;;4901242;29;20270;-87
2022/09/25 01:19:38;;;;;;;18.85;12.05;;;12.90;99.90;;;;;;4909726;29;20289;-86
2022/09/25 01:22:19;;;;;;;17.27;12.18;;;12.90;99.90;;;;;;4913982;29;20178;-87
2022/09/25 01:25:11;;;;;;;16.77;12.48;;;12.90;99.90;;;;;;4919912;29;20182;-87
2022/09/25 01:27:55;;;;;;;17.15;12.10;;;12.90;99.90;;;;;;4915269;29;20185;-87
2022/09/25 01:30:23;;;;;;;20.70;13.35;;;12.90;99.90;;;;;;4919739;29;20590;-87
2022/09/25 01:33:06;;;;;;;19.70;13.43;;;12.90;99.90;;;;;;4919918;29;20182;-87
2022/09/25 01:35:53;;;;;;;16.95;12.57;;;13.00;99.90;;;;;;4919895;29;20241;-87
2022/09/25 01:38:25;;;;;;;15.98;11.90;;;12.90;99.90;;;;;;4919614;29;20189;-86
2022/09/25 01:41:00;;;;;;;21.33;12.52;;;12.90;99.90;;;;;;4919916;29;20177;-87
2022/09/25 01:43:47;;;;;;;21.52;14.00;;;12.90;99.90;;;;;;4919809;29;20177;-87
2022/09/25 01:46:17;;;;;;;19.20;13.13;;;12.90;99.90;;;;;;4919767;29;20186;-87
2022/09/25 01:48:48;;;;;;;19.35;12.93;;;12.90;99.90;;;;;;4919112;29;20340;-86
2022/09/25 01:51:24;;;;;;;18.30;13.23;;;12.90;99.90;;;;;;4919970;29;20528;-87
2022/09/25 01:54:08;;;;;;;20.73;13.77;;;12.90;99.90;;;;;;4919624;29;20192;-87
2022/09/25 01:56:41;;;;;;;18.95;13.40;;;13.00;99.90;;;;;;4919323;29;20210;-87
2022/09/25 01:59:22;;;;;;;18.95;13.45;;;13.00;99.90;;;;;;4919842;29;20181;-87
2022/09/25 02:01:49;;;;;;;21.02;13.02;;;12.90;99.90;;;;;;4936505;29;20178;-86
2022/09/25 02:04:45;;;;;;;18.08;13.02;;;13.00;99.90;;;;;;4919522;29;20182;-87
2022/09/25 02:07:19;;;;;;;18.83;13.23;;;12.90;99.90;;;;;;4911616;29;20185;-87
2022/09/25 02:09:56;;;;;;;18.85;13.73;;;12.90;99.90;;;;;;4918972;29;20228;-87
2022/09/25 02:12:33;;;;;;;18.55;13.45;;;12.90;99.90;;;;;;4919821;29;20178;-87
2022/09/25 02:15:08;;;;;;;18.33;13.52;;;12.90;99.90;;;;;;4919778;29;20230;-87
2022/09/25 02:20:35;;;;;;;18.30;13.38;;;13.00;99.90;;;;;;4936808;29;20189;-87
2022/09/25 02:23:16;;;;;;;21.77;13.38;;;13.00;99.90;;;;;;4919224;29;20182;-87
2022/09/25 02:25:47;;;;;;;17.27;12.90;;;13.00;99.90;;;;;;4919612;29;20190;-86
2022/09/25 02:28:12;;;;;;;17.83;13.23;;;13.00;99.90;;;;;;4919308;29;20225;-86
2022/09/25 02:30:38;;;;;;;18.67;13.60;;;12.90;99.90;;;;;;4936480;29;20262;-87
2022/09/25 02:33:04;;;;;;;21.02;13.30;;;12.90;99.90;;;;;;4919546;29;20519;-87
2022/09/25 02:35:31;;;;;;;18.23;13.38;;;12.90;99.90;;;;;;4919372;29;20189;-87
2022/09/25 02:37:57;;;;;;;17.77;13.38;;;13.00;99.90;;;;;;4919165;29;20208;-87
2022/09/25 02:40:38;;;;;;;18.13;13.73;;;12.90;99.90;;;;;;4919399;29;20217;-87
2022/09/25 02:43:29;;;;;;;21.48;13.48;;;12.90;99.90;;;;;;4919221;29;20174;-87
2022/09/25 02:45:54;;;;;;;17.30;13.27;;;12.90;99.90;;;;;;4919483;29;20526;-87
2022/09/25 02:48:34;;;;;;;17.13;13.40;;;12.90;99.90;;;;;;4919285;29;20230;-88
2022/09/25 02:51:18;;;;;;;16.70;13.23;;;12.90;99.90;;;;;;4919063;29;20330;-87
2022/09/25 02:53:57;;;;;;;18.45;13.35;;;12.90;99.90;;;;;;4935752;29;20170;-87
2022/09/25 02:56:47;;;;;;;20.23;12.98;;;12.90;99.90;;;;;;4919220;29;20185;-87
2022/09/25 02:59:31;;;;;;;18.13;13.38;;;12.90;99.90;;;;;;4936300;29;20170;-86
2022/09/25 03:01:57;;;;;;;19.65;13.70;;;13.00;99.90;;;;;;4921957;29;20234;-87
2022/09/25 03:04:26;;;;;;;16.77;12.85;;;12.90;99.90;;;;;;4922465;29;20182;-86
2022/09/25 03:06:52;;;;;;;18.92;12.57;;;12.90;99.90;;;;;;4922836;29;20194;-86
2022/09/25 03:09:21;;;;;;;15.90;12.02;;;13.00;99.90;;;;;;4922064;29;20214;-87
2022/09/25 03:11:47;;;;;;;17.35;13.20;;;13.00;99.90;;;;;;4922672;29;20181;-87
2022/09/25 03:14:12;;;;;;;16.88;12.52;;;12.90;99.90;;;;;;4921996;29;21024;-86
2022/09/25 03:16:46;;;;;;;17.02;13.15;;;12.90;99.90;;;;;;4922391;29;20178;-87
2022/09/25 03:19:12;;;;;;;18.25;13.13;;;12.90;99.90;;;;;;4921710;29;20221;-86
2022/09/25 03:21:38;;;;;;;19.85;12.70;;;13.00;99.90;;;;;;4922333;29;20184;-87
2022/09/25 03:24:04;;;;;;;20.00;13.98;;;13.00;99.90;;;;;;4939037;29;20574;-87
2022/09/25 03:26:30;;;;;;;17.58;13.20;;;12.90;99.90;;;;;;4921990;29;20637;-86
2022/09/25 03:29:00;;;;;;;16.73;12.93;;;12.90;99.90;;;;;;4922042;29;20297;-86
2022/09/25 03:31:25;;;;;;;19.10;13.00;;;12.90;99.90;;;;;;4921836;29;20265;-86
2022/09/25 03:33:51;;;;;;;20.42;13.68;;;12.90;99.90;;;;;;4921973;29;20326;-86
2022/09/25 03:36:22;;;;;;;19.50;13.38;;;12.90;99.90;;;;;;4921794;29;20269;-86
2022/09/25 03:38:56;;;;;;;20.30;13.30;;;12.90;99.90;;;;;;4921272;29;20186;-87
2022/09/25 03:41:23;;;;;;;14.93;11.82;;;13.00;99.90;;;;;;4938764;29;20173;-86
2022/09/25 03:43:50;;;;;;;15.77;11.90;;;12.90;99.90;;;;;;4921895;29;20269;-87
2022/09/25 03:46:19;;;;;;;16.25;12.68;;;12.90;99.90;;;;;;4921983;29;20186;-87
2022/09/25 03:48:45;;;;;;;20.88;12.68;;;12.90;99.90;;;;;;4938476;29;20237;-86
2022/09/25 03:51:12;;;;;;;18.13;11.48;;;12.90;99.90;;;;;;4921717;29;20677;-87
2022/09/25 03:53:39;;;;;;;16.80;11.63;;;12.90;99.90;;;;;;4921718;29;20217;-86
2022/09/25 03:56:13;;;;;;;14.48;10.85;;;12.90;99.90;;;;;;4921320;29;20182;-88
2022/09/25 03:58:39;;;;;;;12.48;10.27;;;12.90;99.90;;;;;;4921731;29;20178;-87
2022/09/25 04:01:05;;;;;;;15.93;9.73;;;12.90;99.90;;;;;;4921772;29;20696;-86
2022/09/25 04:03:32;;;;;;;13.27;9.60;;;12.90;99.90;;;;;;4921500;29;20182;-87
2022/09/25 04:06:01;;;;;;;14.15;10.60;;;12.90;99.90;;;;;;4938111;29;20683;-86
2022/09/25 04:08:27;;;;;;;14.85;9.73;;;12.90;99.90;;;;;;4920832;29;20214;-88
2022/09/25 04:11:00;;;;;;;13.52;9.45;;;12.90;99.90;;;;;;4921267;29;20584;-86
2022/09/25 04:13:28;;;;;;;15.73;9.45;;;12.90;99.90;;;;;;4938358;29;20241;-86
2022/09/25 04:15:55;;;;;;;12.05;9.07;;;12.90;99.90;;;;;;4921232;29;20644;-87
2022/09/25 04:18:22;;;;;;;16.08;10.20;;;12.90;99.90;;;;;;4921450;29;20190;-87
2022/09/25 04:20:47;;;;;;;18.63;10.65;;;12.90;99.90;;;;;;4938329;29;20381;-86
2022/09/25 04:23:13;;;;;;;16.25;11.02;;;12.90;99.90;;;;;;4920803;29;20276;-86
2022/09/25 04:25:39;;;;;;;13.65;9.60;;;12.90;99.90;;;;;;4920958;29;20217;-86
2022/09/25 04:28:06;;;;;;;18.73;11.90;;;12.90;99.90;;;;;;4920965;29;20182;-86
2022/09/25 04:30:32;;;;;;;20.20;11.75;;;12.90;99.90;;;;;;4920929;29;20182;-85
2022/09/25 04:35:44;;;;;;;19.33;11.63;;;12.80;99.90;;;;;;4937962;29;20177;-87
2022/09/25 04:38:09;;;;;;;22.20;11.95;;;12.80;99.90;;;;;;4932174;29;20211;-86
2022/09/25 04:40:36;;;;;;;20.35;11.18;;;12.80;99.90;;;;;;4940026;29;20612;-86
2022/09/25 04:43:04;;;;;;;18.08;11.07;;;12.80;99.90;;;;;;4939561;29;20679;-87
2022/09/25 04:45:33;;;;;;;22.75;12.68;;;12.80;99.90;;;;;;4939703;29;20232;-86
2022/09/25 04:48:00;;;;;;;22.95;11.98;;;12.80;99.90;;;;;;4938892;29;20233;-86
2022/09/25 04:50:27;;;;;;;18.48;11.85;;;12.80;99.90;;;;;;4956549;29;20185;-86
2022/09/25 04:52:53;;;;;;;21.92;12.55;;;12.80;99.90;;;;;;4939199;29;20266;-86
2022/09/25 04:55:23;;;;;;;27.95;14.30;;;12.80;99.90;;;;;;4939423;29;20248;-86
2022/09/25 04:58:00;;;;;;;24.98;13.85;;;12.80;99.90;;;;;;4939265;29;20241;-87
2022/09/25 05:00:31;;;;;;;25.08;13.32;;;12.80;99.90;;;;;;4939516;29;20177;-87
2022/09/25 05:02:57;;;;;;;27.45;14.30;;;12.80;99.90;;;;;;4939316;29;20181;-87
2022/09/25 05:05:27;;;;;;;26.40;14.82;;;12.80;99.90;;;;;;4939102;29;20189;-85
2022/09/25 05:07:54;;;;;;;26.00;14.85;;;12.70;99.90;;;;;;4929851;29;20193;-86
2022/09/25 05:10:21;;;;;;;25.58;13.65;;;12.80;99.90;;;;;;4920359;29;20633;-87
2022/09/25 05:12:53;;;;;;;24.13;14.35;;;12.80;99.90;;;;;;4920071;29;20233;-86
2022/09/25 05:15:19;;;;;;;31.65;16.45;;;12.70;99.90;;;;;;4936979;29;20174;-86
2022/09/25 05:17:45;;;;;;;29.55;16.52;;;12.70;99.90;;;;;;4920114;29;20221;-86
2022/09/25 05:20:10;;;;;;;34.67;17.70;;;12.70;99.90;;;;;;4937055;29;20202;-86
2022/09/25 05:22:36;;;;;;;33.47;16.95;;;12.70;99.90;;;;;;4919704;29;20244;-86
2022/09/25 05:25:04;;;;;;;34.13;17.52;;;12.70;99.90;;;;;;4919755;29;20182;-86
2022/09/25 05:27:32;;;;;;;33.90;17.52;;;12.70;99.90;;;;;;4920062;29;20194;-86
2022/09/25 05:29:58;;;;;;;32.70;17.05;;;12.70;99.90;;;;;;4920045;29;20744;-86
2022/09/25 05:32:24;;;;;;;34.55;18.17;;;12.70;99.90;;;;;;4920288;29;20189;-86
2022/09/25 05:34:50;;;;;;;35.65;18.10;;;12.70;99.90;;;;;;4919971;29;20185;-87
2022/09/25 05:37:16;;;;;;;34.03;18.55;;;12.70;99.90;;;;;;4919975;29;20182;-87
2022/09/25 05:39:41;;;;;;;36.78;18.75;;;12.70;99.90;;;;;;4919574;29;20216;-87
2022/09/25 05:42:07;;;;;;;38.53;20.50;;;12.70;99.90;;;;;;4919827;29;20185;-86
2022/09/25 05:44:33;;;;;;;35.92;19.10;;;12.70;99.90;;;;;;4936746;29;20173;-87
2022/09/25 05:46:59;;;;;;;34.53;20.27;;;12.70;99.90;;;;;;4936680;29;20243;-86
2022/09/25 05:49:24;;;;;;;36.90;19.67;;;12.70;99.90;;;;;;4936768;29;20676;-87
2022/09/25 05:51:50;;;;;;;35.03;19.73;;;12.70;99.90;;;;;;4920012;29;20182;-87
2022/09/25 05:54:16;;;;;;;35.78;20.55;;;12.70;99.90;;;;;;4935904;29;20181;-86
2022/09/25 05:56:41;;;;;;;34.30;20.90;;;12.70;99.90;;;;;;4918929;29;20178;-87
2022/09/25 05:59:07;;;;;;;34.10;19.10;;;12.80;99.90;;;;;;4918265;29;20189;-86
2022/09/25 06:01:33;;;;;;;36.50;21.17;;;12.80;99.90;;;;;;4919308;29;20184;-86
2022/09/25 06:03:58;;;;;;;35.75;19.75;;;12.70;99.90;;;;;;4919174;29;20198;-86
2022/09/25 06:06:24;;;;;;;38.72;21.70;;;12.80;99.90;;;;;;4917825;29;20201;-87
2022/09/25 06:08:52;;;;;;;30.42;18.73;;;12.80;99.90;;;;;;4918574;29;20200;-87
2022/09/25 06:11:17;;;;;;;29.55;18.15;;;12.80;99.90;;;;;;4917792;29;20178;-87
2022/09/25 06:13:45;;;;;;;30.75;18.45;;;12.80;99.90;;;;;;4918907;29;20257;-87
2022/09/25 06:16:18;;;;;;;27.73;16.85;;;12.80;99.90;;;;;;4918084;29;20182;-87
2022/09/25 06:18:45;;;;;;;25.55;16.58;;;12.80;99.90;;;;;;4919382;29;20189;-88
2022/09/25 06:21:12;;;;;;;29.90;15.88;;;12.80;99.90;;;;;;4919671;29;20241;-87
2022/09/25 06:23:38;;;;;;;27.83;15.98;;;12.80;99.90;;;;;;4918607;29;20383;-87
2022/09/25 06:26:05;;;;;;;24.38;14.55;;;12.90;99.90;;;;;;4936601;29;20695;-87
2022/09/25 06:28:33;;;;;;;22.45;13.68;;;12.90;99.90;;;;;;4918773;29;20300;-87
2022/09/25 06:31:00;;;;;;;19.27;12.45;;;12.90;99.90;;;;;;4918565;29;20188;-86
2022/09/25 06:33:26;;;;;;;20.02;13.40;;;12.90;99.90;;;;;;4936458;29;20170;-87
2022/09/25 06:35:51;;;;;;;19.83;12.45;;;12.90;99.90;;;;;;4937791;29;20561;-87
2022/09/25 06:38:17;;;;;;;21.63;13.02;;;12.90;99.90;;;;;;4922063;29;20189;-87
2022/09/25 06:40:43;;;;;;;19.05;12.68;;;12.90;99.90;;;;;;4940024;29;20182;-87
2022/09/25 06:43:11;;;;;;;22.70;13.43;;;12.90;99.90;;;;;;4922953;29;20517;-87
2022/09/25 06:45:40;;;;;;;24.10;14.60;;;12.90;99.90;;;;;;4938639;29;20182;-87
2022/09/25 06:48:16;;;;;;;21.85;13.75;;;12.80;99.90;;;;;;4922134;29;20575;-86
2022/09/25 06:50:46;;;;;;;24.50;14.73;;;12.80;99.90;;;;;;4922174;29;20210;-87
2022/09/25 06:53:13;;;;;;;25.52;14.80;;;12.80;99.90;;;;;;4919712;29;20173;-86
2022/09/25 06:55:39;;;;;;;24.40;13.35;;;12.80;99.90;;;;;;4922673;29;20515;-86
2022/09/25 06:58:09;;;;;;;25.23;13.98;;;12.80;99.90;;;;;;4922336;29;20178;-86
2022/09/25 07:00:35;;;;;;;20.92;13.23;;;12.80;99.90;;;;;;4922873;29;20265;-86
2022/09/25 07:05:47;;;;;;;21.52;11.73;;;12.80;99.90;;;;;;4939762;29;20181;-86
2022/09/25 07:08:15;;;;;;;18.70;12.07;;;12.80;99.90;;;;;;4922687;29;20229;-86
2022/09/25 07:10:51;;;;;;;17.98;12.30;;;12.80;99.90;;;;;;4922757;29;20190;-87
2022/09/25 07:13:23;;;;;;;17.75;11.23;;;12.80;99.90;;;;;;4922738;29;20212;-86
2022/09/25 07:15:53;;;;;;;17.30;11.13;;;12.90;99.90;;;;;;4921733;29;20217;-86
2022/09/25 07:18:20;;;;;;;17.70;11.07;;;12.90;99.90;;;;;;4922053;29;20182;-86
2022/09/25 07:20:46;;;;;;;14.93;9.63;;;12.90;99.90;;;;;;4922285;29;20614;-86
2022/09/25 07:23:16;;;;;;;13.60;9.48;;;12.90;99.90;;;;;;4922214;29;20193;-86
2022/09/25 07:25:44;;;;;;;13.65;8.93;;;12.90;99.90;;;;;;4922783;29;20170;-87
2022/09/25 07:28:13;;;;;;;13.63;8.93;;;12.90;99.90;;;;;;4922026;29;20196;-86
2022/09/25 07:30:40;;;;;;;15.05;9.48;;;12.90;99.90;;;;;;4921089;29;20189;-86
2022/09/25 07:33:06;;;;;;;13.55;8.18;;;13.00;99.90;;;;;;4921371;29;20341;-85
2022/09/25 07:35:33;;;;;;;12.85;8.00;;;12.90;99.90;;;;;;4921780;29;20261;-87
2022/09/25 07:37:59;;;;;;;12.98;7.80;;;13.00;99.90;;;;;;4938620;29;20178;-87
2022/09/25 07:40:27;;;;;;;12.95;8.05;;;12.90;99.90;;;;;;4921255;29;20201;-87
2022/09/25 07:43:01;;;;;;;10.15;7.30;;;13.00;99.90;;;;;;4920812;29;20189;-86
2022/09/25 07:45:27;;;;;;;10.65;7.55;;;13.00;99.90;;;;;;4920887;29;20241;-87
2022/09/25 07:47:59;;;;;;;11.20;7.60;;;12.90;99.90;;;;;;4921438;29;20238;-86
2022/09/25 07:50:25;;;;;;;12.13;7.40;;;13.00;99.90;;;;;;4922094;29;20748;-87
2022/09/25 07:52:52;;;;;;;13.00;8.85;;;13.00;99.90;;;;;;4921911;29;20178;-87
2022/09/25 07:55:18;;;;;;;11.60;7.78;;;13.00;99.90;;;;;;4921633;29;20185;-87
2022/09/25 07:57:44;;;;;;;10.68;7.57;;;13.00;99.90;;;;;;4921836;29;20181;-87
2022/09/25 08:00:11;;;;;;;12.63;8.10;;;13.00;99.90;;;;;;4921375;29;20186;-87
2022/09/25 08:02:37;;;;;;;11.07;7.00;;;13.00;99.90;;;;;;4921710;29;20206;-87
2022/09/25 08:05:04;;;;;;;11.93;8.07;;;13.10;99.90;;;;;;4921697;29;20629;-86
2022/09/25 08:07:30;;;;;;;11.40;8.07;;;13.00;99.90;;;;;;4921500;29;20212;-85
2022/09/25 08:09:56;;;;;;;10.32;7.35;;;13.10;99.90;;;;;;4921567;29;20704;-85
2022/09/25 08:12:24;;;;;;;15.25;9.63;;;13.00;99.90;;;;;;4921437;29;20565;-87
2022/09/25 08:14:53;;;;;;;11.10;7.65;;;13.00;99.90;;;;;;4921060;29;20178;-87
2022/09/25 08:17:21;;;;;;;11.20;7.72;;;13.10;99.90;;;;;;4921599;29;20182;-87
2022/09/25 08:19:46;;;;;;;11.73;7.63;;;13.10;99.90;;;;;;4921339;29;20181;-87
2022/09/25 08:22:12;;;;;;;11.85;7.85;;;13.10;99.90;;;;;;4921458;29;20616;-86
2022/09/25 08:24:38;;;;;;;11.27;7.38;;;13.10;99.90;;;;;;4920919;29;20184;-86
2022/09/25 08:27:04;;;;;;;11.77;8.27;;;13.10;99.90;;;;;;4921235;29;20307;-86
2022/09/25 08:29:30;;;;;;;11.15;8.38;;;13.10;99.90;;;;;;4920878;29;20699;-87
2022/09/25 08:31:56;;;;;;;11.32;7.93;;;13.10;99.90;;;;;;4920969;29;20193;-87
2022/09/25 08:34:22;;;;;;;14.23;8.73;;;13.20;99.90;;;;;;4921015;29;20524;-85
2022/09/25 08:36:49;;;;;;;16.15;9.80;;;13.10;99.90;;;;;;4937915;29;20178;-86
2022/09/25 08:39:15;;;;;;;15.80;10.30;;;13.20;99.90;;;;;;4920822;29;20695;-86
2022/09/25 08:41:53;;;;;;;15.65;10.02;;;13.10;99.90;;;;;;4921080;29;20186;-87
2022/09/25 08:44:22;;;;;;;13.88;9.15;;;13.10;99.90;;;;;;4920765;29;20190;-87
2022/09/25 08:50:09;;;;;;;12.50;9.38;;;13.10;99.90;;;;;;4937640;29;20209;-87
2022/09/25 08:52:36;;;;;;;11.10;8.93;;;13.10;99.90;;;;;;4920790;29;20600;-86
2022/09/25 08:55:02;;;;;;;12.27;8.82;;;13.10;99.90;;;;;;4920606;29;20601;-86
2022/09/25 08:57:44;;;;;;;16.60;9.70;;;13.20;99.90;;;;;;4920590;29;20185;-89
2022/09/25 09:00:19;;;;;;;16.40;10.23;;;13.20;99.90;;;;;;4920321;29;20215;-87
2022/09/25 09:02:56;;;;;;;13.32;9.68;;;13.20;99.90;;;;;;4920815;29;20190;-88
2022/09/25 09:05:35;;;;;;;14.98;10.05;;;13.20;99.90;;;;;;4920646;29;20174;-87
2022/09/25 09:08:15;;;;;;;15.25;10.18;;;13.20;99.90;;;;;;4920217;29;20177;-87
2022/09/25 09:10:53;;;;;;;14.07;9.93;;;13.30;99.90;;;;;;4920534;29;20194;-88
2022/09/25 09:13:42;;;;;;;15.88;9.65;;;13.30;99.90;;;;;;4937648;29;20182;-87
2022/09/25 09:16:42;;;;;;;14.25;9.73;;;13.30;99.90;;;;;;4920349;29;20174;-87
2022/09/25 09:19:10;;;;;;;14.27;9.13;;;13.30;99.90;;;;;;4920557;29;20284;-88
2022/09/25 09:21:40;;;;;;;14.55;9.88;;;13.30;99.90;;;;;;4920603;29;20205;-88
2022/09/25 09:24:16;;;;;;;15.93;9.55;;;13.30;99.90;;;;;;4920402;29;20261;-85
2022/09/25 09:27:19;;;;;;;14.38;9.63;;;13.30;99.90;;;;;;4920315;29;20202;-87
2022/09/25 09:30:00;;;;;;;15.02;9.20;;;13.30;99.90;;;;;;4937009;29;20280;-87
2022/09/25 09:32:53;;;;;;;14.35;9.10;;;13.30;99.90;;;;;;4937295;29;20186;-87
2022/09/25 09:35:42;;;;;;;14.07;8.85;;;13.30;99.90;;;;;;4920347;29;20506;-87
2022/09/25 09:38:14;;;;;;;14.40;9.07;;;13.30;99.90;;;;;;4919497;29;20182;-87
2022/09/25 09:40:48;;;;;;;14.48;9.07;;;13.30;99.90;;;;;;4937076;29;20617;-87
2022/09/25 09:43:19;;;;;;;18.75;9.00;;;13.30;99.90;;;;;;4920062;29;20173;-85
2022/09/25 09:45:51;;;;;;;17.63;9.50;;;13.30;99.90;;;;;;4919992;29;20178;-87
2022/09/25 09:48:28;;;;;;;21.00;9.65;;;13.30;99.90;;;;;;4919803;29;20608;-87
2022/09/25 09:51:13;;;;;;;16.75;9.13;;;13.30;99.90;;;;;;4920046;29;20197;-87
2022/09/25 09:53:53;;;;;;;15.57;9.38;;;13.30;99.90;;;;;;4919484;29;20216;-87
2022/09/25 09:56:31;;;;;;;14.23;9.18;;;13.40;99.90;;;;;;4919991;29;20529;-88
2022/09/25 09:59:18;;;;;;;13.38;8.35;;;13.50;99.90;;;;;;4937007;29;20174;-86
2022/09/25 10:01:48;;;;;;;12.38;8.00;;;13.50;99.90;;;;;;4936403;29;20241;-87
2022/09/25 10:04:21;;;;;;;11.32;7.30;;;13.60;99.90;;;;;;4919678;29;20177;-87
2022/09/25 10:06:57;;;;;;;14.13;8.38;;;13.70;99.90;;;;;;4919843;29;20255;-86
2022/09/25 10:09:25;;;;;;;13.73;8.20;;;13.60;99.90;;;;;;4937174;29;20201;-86
2022/09/25 10:11:59;;;;;;;14.07;8.35;;;13.60;99.90;;;;;;4923748;29;20174;-87
2022/09/25 10:14:31;;;;;;;15.30;8.25;;;13.60;99.90;;;;;;4923521;29;20546;-87
2022/09/25 10:16:58;;;;;;;16.88;8.30;;;13.60;99.90;;;;;;4923637;29;20245;-87
2022/09/25 10:19:27;;;;;;;15.82;8.70;;;13.50;99.90;;;;;;4923430;29;20177;-86
2022/09/25 10:22:03;;;;;;;11.23;7.53;;;13.50;99.90;;;;;;4923511;29;20528;-87
2022/09/25 10:25:05;;;;;;;12.27;7.50;;;13.50;99.90;;;;;;4923219;29;20181;-87
2022/09/25 10:27:35;;;;;;;16.23;7.35;;;13.60;99.90;;;;;;4866057;29;20198;-87
2022/09/25 10:30:01;;;;;;;14.23;7.10;;;13.60;99.90;;;;;;4913723;29;20225;-87
2022/09/25 10:32:34;;;;;;;9.90;7.03;;;13.60;99.90;;;;;;4923341;29;20177;-87
2022/09/25 10:35:00;;;;;;;9.45;6.07;;;13.60;99.90;;;;;;4940324;29;20186;-87
2022/09/25 10:37:34;;;;;;;9.68;6.63;;;13.60;99.90;;;;;;4938875;29;20185;-87
2022/09/25 10:40:06;;;;;;;14.63;7.00;;;13.70;99.90;;;;;;4940282;29;20170;-86
2022/09/25 10:42:37;;;;;;;12.18;6.57;;;13.70;99.90;;;;;;4923169;29;20233;-87
2022/09/25 10:45:21;;;;;;;9.73;6.22;;;13.70;99.90;;;;;;4939905;29;20166;-86
2022/09/25 10:50:35;;;;;;;10.18;5.47;;;13.80;99.90;;;;;;4939993;29;20266;-87
2022/09/25 10:53:03;;;;;;;9.85;6.15;;;13.80;99.90;;;;;;4939794;29;20177;-87
2022/09/25 10:55:36;;;;;;;9.40;5.10;;;13.80;99.90;;;;;;4923052;29;20233;-87
2022/09/25 10:58:10;;;;;;;8.38;5.75;;;13.80;99.90;;;;;;4922820;29;20177;-87
2022/09/25 11:00:57;;;;;;;6.72;5.22;;;13.90;99.90;;;;;;4939891;29;20628;-87
2022/09/25 11:03:31;;;;;;;8.15;4.65;;;13.90;99.90;;;;;;4922501;29;20193;-87
2022/09/25 11:06:02;;;;;;;11.43;6.15;;;14.00;99.90;;;;;;4922726;29;20182;-87
2022/09/25 11:08:31;;;;;;;11.05;6.70;;;14.00;99.90;;;;;;4922537;29;20587;-87
2022/09/25 11:10:59;;;;;;;9.10;6.43;;;13.90;99.90;;;;;;4922708;29;20189;-86
2022/09/25 11:13:28;;;;;;;10.55;5.93;;;13.90;99.90;;;;;;4939525;29;20229;-87
2022/09/25 11:16:03;;;;;;;9.88;6.00;;;13.90;99.90;;;;;;4922407;29;20194;-87
2022/09/25 11:18:37;;;;;;;9.25;5.65;;;13.90;99.90;;;;;;4922491;29;20178;-87
2022/09/25 11:21:05;;;;;;;10.43;5.70;;;13.90;99.90;;;;;;4921871;29;20181;-86
2022/09/25 11:24:00;;;;;;;10.93;5.40;;;13.90;99.90;;;;;;4922035;29;20185;-86
2022/09/25 11:26:35;;;;;;;9.15;5.40;;;14.00;99.90;;;;;;4922363;29;20769;-86
2022/09/25 11:29:12;;;;;;;9.15;5.85;;;14.10;99.90;;;;;;4922345;29;20236;-87
2022/09/25 11:31:41;;;;;;;9.27;5.47;;;14.10;99.90;;;;;;4922387;29;20663;-87
2022/09/25 11:34:06;;;;;;;8.63;5.78;;;14.20;99.90;;;;;;4922104;29;20213;-87
2022/09/25 11:36:41;;;;;;;7.65;5.40;;;14.20;99.90;;;;;;4922078;29;20696;-87
2022/09/25 11:42:13;;;;;;;8.25;4.97;;;14.30;99.90;;;;;;4939543;29;20221;-87
2022/09/25 11:44:56;;;;;;;5.70;4.38;;;14.30;99.90;;;;;;4921991;29;20590;-87
2022/09/25 11:47:35;;;;;;;7.28;4.57;;;14.30;99.90;;;;;;4921935;29;20705;-87
2022/09/25 11:50:02;;;;;;;7.22;4.50;;;14.30;99.90;;;;;;4938717;29;20648;-86
2022/09/25 11:52:40;;;;;;;6.20;3.92;;;14.30;99.90;;;;;;4921725;29;20533;-86
2022/09/25 11:55:08;;;;;;;6.28;4.43;;;14.30;99.90;;;;;;4921533;29;20224;-86
2022/09/25 11:58:00;;;;;;;5.88;4.07;;;14.30;99.90;;;;;;4938936;29;20491;-86
2022/09/25 12:00:51;;;;;;;6.18;4.10;;;14.30;99.90;;;;;;4921808;29;20174;-87
2022/09/25 12:03:39;;;;;;;7.07;3.65;;;14.30;99.90;;;;;;4896214;29;20186;-87
2022/09/25 12:06:52;;;;;;;6.60;3.75;;;14.30;99.90;;;;;;4921696;29;20207;-86
2022/09/25 12:09:26;;;;;;;6.13;3.83;;;14.30;99.90;;;;;;4907811;29;20214;-87
2022/09/25 12:12:17;;;;;;;8.18;4.38;;;14.30;99.90;;;;;;4938392;29;20177;-87
2022/09/25 12:15:03;;;;;;;10.65;4.40;;;14.40;99.90;;;;;;4927777;29;20221;-86
2022/09/25 12:17:57;;;;;;;6.32;4.30;;;14.40;99.90;;;;;;4938535;29;20174;-86
2022/09/25 12:20:31;;;;;;;9.13;4.38;;;14.50;99.90;;;;;;4921222;29;20623;-87
2022/09/25 12:22:59;;;;;;;7.57;3.70;;;14.40;99.90;;;;;;4921039;29;20280;-87
2022/09/25 12:25:46;;;;;;;6.68;4.00;;;14.30;99.90;;;;;;4938472;29;20170;-87
2022/09/25 12:28:30;;;;;;;5.43;4.07;;;14.30;99.90;;;;;;4921279;29;20178;-86
2022/09/25 12:31:30;;;;;;;7.03;3.65;;;14.40;99.90;;;;;;4921234;29;20538;-87
2022/09/25 12:34:32;;;;;;;7.43;3.45;;;14.40;99.90;;;;;;4918294;29;20182;-87
2022/09/25 12:37:11;;;;;;;6.57;3.17;;;14.40;99.90;;;;;;4938042;29;20185;-87
2022/09/25 12:39:43;;;;;;;5.60;3.13;;;14.40;99.90;;;;;;4902262;29;20640;-87
2022/09/25 12:42:37;;;;;;;4.85;3.25;;;14.40;99.90;;;;;;4902053;29;20274;-87
2022/09/25 12:45:24;;;;;;;5.22;3.67;;;14.50;99.90;;;;;;4901894;29;20202;-87
2022/09/25 12:48:11;;;;;;;6.80;4.00;;;14.60;99.90;;;;;;4901914;29;20818;-86
2022/09/25 12:50:59;;;;;;;6.07;3.35;;;14.70;99.90;;;;;;4902136;29;20526;-87
2022/09/25 12:53:42;;;;;;;8.75;3.17;;;14.80;99.90;;;;;;4901639;29;20234;-86
2022/09/25 12:56:16;;;;;;;4.75;3.17;;;14.80;99.90;;;;;;4901725;29;20193;-87
2022/09/25 12:58:56;;;;;;;3.70;2.97;;;14.90;99.90;;;;;;4901796;29;20207;-86
2022/09/25 13:01:26;;;;;;;4.40;2.78;;;14.90;99.90;;;;;;4901896;29;20226;-87
2022/09/25 13:04:33;;;;;;;4.57;2.70;;;14.90;99.90;;;;;;4901677;29;20182;-87
2022/09/25 13:07:08;;;;;;;7.10;3.35;;;14.90;99.90;;;;;;4901730;29;20185;-87
2022/09/25 13:09:43;;;;;;;6.43;3.78;;;14.80;99.90;;;;;;4901400;29;20213;-87
2022/09/25 13:12:27;;;;;;;4.22;2.97;;;14.70;99.90;;;;;;4918417;29;20590;-86
2022/09/25 13:15:03;;;;;;;6.60;3.75;;;14.60;99.90;;;;;;4901577;29;20511;-87
2022/09/25 13:17:30;;;;;;;5.90;3.63;;;14.50;99.90;;;;;;4901442;29;20559;-87
2022/09/25 13:20:28;;;;;;;6.40;4.00;;;14.50;99.90;;;;;;4901604;29;20178;-87
2022/09/25 13:23:15;;;;;;;3.78;3.33;;;14.40;99.90;;;;;;4901069;29;20273;-86
2022/09/25 13:25:58;;;;;;;6.00;4.00;;;14.50;99.90;;;;;;4918270;29;20182;-87
2022/09/25 13:28:34;;;;;;;4.47;3.67;;;14.50;99.90;;;;;;4901247;29;20194;-87
2022/09/25 13:31:07;;;;;;;4.03;3.55;;;14.50;99.90;;;;;;4901403;29;20214;-86
2022/09/25 13:33:49;;;;;;;8.00;3.70;;;14.60;99.90;;;;;;4901395;29;20182;-87
2022/09/25 13:36:22;;;;;;;6.40;4.03;;;14.50;99.90;;;;;;4901280;29;20331;-87